Time;durP1;ratioP1;P1;durP2;ratioP2;P2;SDS_P1;SDS_P2;PMS_P1;PMS_P2;Temp;Humidity;BMP_temperature;BMP_pressure;BME280_temperature;BME280_humidity;BME280_pressure;Samples;Min_cycle;Max_cycle;Signal;HPM_P1;HPM_P2
2023/01/13 00:01:29;;;;;;;14.88;3.38;;;;;;;9.63;100.00;100165.16;2615785;36;20424;-59
2023/01/13 00:03:58;;;;;;;20.20;3.70;;;;;;;9.63;100.00;100180.47;2615232;36;20029;-58
2023/01/13 00:06:28;;;;;;;;;;;;;;;9.67;100.00;100171.09;2615757;31;20594;-58
2023/01/13 00:08:56;;;;;;;;;;;;;;;9.65;100.00;100162.34;2616331;36;20662;-57
2023/01/13 00:11:27;;;;;;;22.63;3.57;;;;;;;9.62;100.00;100157.25;2615006;31;19950;-58
2023/01/13 00:14:04;;;;;;;20.58;3.78;;;;;;;9.64;100.00;100157.94;2616490;36;20057;-59
2023/01/13 00:16:33;;;;;;;22.38;3.70;;;;;;;9.61;100.00;100160.94;2616481;31;20431;-58
2023/01/13 00:19:01;;;;;;;22.40;3.55;;;;;;;9.60;100.00;100153.88;2616237;36;20030;-58
2023/01/13 00:21:29;;;;;;;16.13;3.43;;;;;;;9.50;100.00;100161.97;2616779;31;20042;-57
2023/01/13 00:23:58;;;;;;;19.85;3.22;;;;;;;9.51;100.00;100173.56;2616736;36;20027;-57
2023/01/13 00:26:32;;;;;;;19.65;3.42;;;;;;;9.43;100.00;100164.38;2616319;36;20042;-58
2023/01/13 00:29:04;;;;;;;26.63;3.95;;;;;;;9.40;100.00;100167.34;2616393;36;20034;-57
2023/01/13 00:31:32;;;;;;;24.20;4.30;;;;;;;9.19;100.00;100164.03;2615657;36;20042;-58
2023/01/13 00:34:03;;;;;;;22.60;3.55;;;;;;;9.25;100.00;100160.78;2615155;36;20030;-55
2023/01/13 00:36:32;;;;;;;18.80;4.20;;;;;;;9.11;100.00;100162.91;2616304;36;20033;-58
2023/01/13 00:39:00;;;;;;;22.23;4.53;;;;;;;8.90;100.00;100162.22;2616309;36;20235;-58
2023/01/13 00:43:21;;;;;;;36.70;5.50;;;;;;;9.02;100.00;100153.03;2615997;36;20130;-57
2023/01/13 00:44:17;;;;;;;22.55;3.88;;;;;;;9.05;100.00;100146.53;2616154;31;20027;-57
2023/01/13 00:46:45;;;;;;;20.58;2.97;;;;;;;9.10;100.00;100139.75;2615277;36;20041;-58
2023/01/13 00:49:14;;;;;;;24.65;3.67;;;;;;;9.02;100.00;100144.13;2615014;31;20544;-58
2023/01/13 00:51:42;;;;;;;25.20;4.75;;;;;;;9.00;100.00;100141.59;2617054;31;20046;-57
2023/01/13 00:54:10;;;;;;;19.20;3.28;;;;;;;8.90;100.00;100135.38;2616499;36;20507;-57
2023/01/13 00:56:41;;;;;;;22.63;4.90;;;;;;;9.04;100.00;100145.69;2616211;36;20038;-57
2023/01/13 00:59:12;;;;;;;20.42;3.25;;;;;;;8.96;100.00;100145.53;2634620;36;20412;-58
2023/01/13 01:01:41;;;;;;;23.48;4.25;;;;;;;8.89;100.00;100139.06;2615723;36;20034;-58
2023/01/13 01:04:10;;;;;;;19.17;4.72;;;;;;;8.77;100.00;100141.91;2615249;36;20158;-57
2023/01/13 01:06:38;;;;;;;16.88;3.25;;;;;;;8.79;100.00;100143.59;2616110;36;20027;-58
2023/01/13 01:09:06;;;;;;;22.65;3.75;;;;;;;8.68;100.00;100137.38;2616022;36;20030;-57
2023/01/13 01:11:36;;;;;;;18.63;2.60;;;;;;;8.68;100.00;100148.09;2616076;36;20547;-58
2023/01/13 01:14:07;;;;;;;23.98;4.45;;;;;;;8.67;100.00;100134.84;2615689;36;20041;-54
2023/01/13 01:16:35;;;;;;;22.83;3.53;;;;;;;8.62;100.00;100145.16;2615183;36;20035;-56
2023/01/13 01:19:04;;;;;;;24.50;3.88;;;;;;;8.53;100.00;100145.00;2615620;36;20042;-58
2023/01/13 01:21:35;;;;;;;22.20;3.53;;;;;;;8.54;100.00;100145.88;2616463;36;20503;-57
2023/01/13 01:24:05;;;;;;;28.88;4.07;;;;;;;8.60;100.00;100147.97;2616062;36;20568;-59
2023/01/13 01:26:34;;;;;;;20.02;4.45;;;;;;;8.54;100.00;100141.34;2613916;36;20045;-57
2023/01/13 01:29:03;;;;;;;26.58;4.32;;;;;;;8.64;100.00;100135.13;2614856;36;20045;-58
2023/01/13 01:31:35;;;;;;;21.10;3.65;;;;;;;8.71;100.00;100138.94;2614309;36;20049;-58
2023/01/13 01:34:03;;;;;;;30.08;4.05;;;;;;;8.74;100.00;100136.78;2614483;36;20029;-56
2023/01/13 01:36:33;;;;;;;25.95;3.08;;;;;;;8.75;100.00;100119.72;2614582;36;20713;-58
2023/01/13 01:39:02;;;;;;;24.45;3.90;;;;;;;8.70;100.00;100139.91;2615392;36;20038;-57
2023/01/13 01:41:34;;;;;;;28.13;3.58;;;;;;;8.70;100.00;100145.28;2614488;36;20034;-58
2023/01/13 01:44:05;;;;;;;34.45;5.30;;;;;;;8.66;100.00;100138.53;2614766;31;20034;-58
2023/01/13 01:46:39;;;;;;;27.00;4.18;;;;;;;8.62;100.00;100148.69;2614062;36;20864;-58
2023/01/13 01:49:15;;;;;;;29.33;3.47;;;;;;;8.47;100.00;100163.50;2614385;36;20061;-57
2023/01/13 01:51:47;;;;;;;22.65;3.97;;;;;;;8.56;100.00;100168.03;2614944;36;20030;-57
2023/01/13 01:54:21;;;;;;;31.55;3.53;;;;;;;8.67;100.00;100173.25;2615106;36;20496;-56
2023/01/13 01:56:50;;;;;;;23.23;3.67;;;;;;;8.71;100.00;100161.22;2614346;36;20053;-57
2023/01/13 01:59:19;;;;;;;25.00;4.63;;;;;;;8.70;100.00;100147.97;2614844;36;20038;-57
2023/01/13 02:01:50;;;;;;;20.27;3.92;;;;;;;8.66;100.00;100143.91;2614236;36;20034;-59
2023/01/13 02:04:25;;;;;;;22.38;3.72;;;;;;;8.59;100.00;100144.44;2614159;36;20034;-57
2023/01/13 02:06:55;;;;;;;26.67;3.80;;;;;;;8.66;100.00;100136.69;2614894;36;20043;-58
2023/01/13 02:09:24;;;;;;;19.15;3.42;;;;;;;8.59;100.00;100138.22;2614990;36;20030;-55
2023/01/13 02:14:34;;;;;;;27.45;4.57;;;;;;;8.57;100.00;100129.50;2614770;36;20123;-58
2023/01/13 02:17:12;;;;;;;;;;;;;;;8.53;100.00;100128.06;2613166;36;20023;-57
2023/01/13 02:20:16;;;;;;;22.73;5.20;;;;;;;8.45;100.00;100130.59;2613544;36;19950;-58
2023/01/13 02:26:42;;;;;;;34.65;4.65;;;;;;;8.37;100.00;100118.69;2612525;31;20039;-59
2023/01/13 02:32:10;;;;;;;27.45;4.35;;;;;;;8.55;100.00;100112.66;2631935;36;20625;-57
2023/01/13 02:34:44;;;;;;;29.00;5.15;;;;;;;8.72;100.00;100120.00;2614488;36;20053;-58
2023/01/13 02:37:18;;;;;;;28.77;4.50;;;;;;;8.73;100.00;100102.94;2614719;36;20053;-59
2023/01/13 02:39:54;;;;;;;21.70;3.95;;;;;;;8.62;100.00;100119.16;2614710;36;20041;-58
2023/01/13 02:45:25;;;;;;;;;;;;;;;8.80;100.00;100110.41;2614194;36;20118;-58
2023/01/13 02:47:59;;;;;;;22.08;4.03;;;;;;;8.82;100.00;100095.88;2613615;36;19954;-58
2023/01/13 02:50:35;;;;;;;19.52;3.70;;;;;;;8.79;100.00;100095.28;2614132;31;20034;-59
2023/01/13 02:53:09;;;;;;;21.35;3.40;;;;;;;8.82;100.00;100097.69;2614723;36;20582;-58
2023/01/13 02:55:41;;;;;;;29.35;4.68;;;;;;;8.71;100.00;100096.84;2632213;36;20036;-58
2023/01/13 02:58:13;;;;;;;25.42;4.20;;;;;;;8.76;100.00;100081.19;2614691;31;20038;-57
2023/01/13 03:00:43;;;;;;;25.90;4.18;;;;;;;8.72;100.00;100087.81;2615009;36;20038;-58
2023/01/13 03:03:14;;;;;;;28.58;3.92;;;;;;;8.72;100.00;100093.19;2613264;36;20069;-59
2023/01/13 03:05:45;;;;;;;23.35;4.10;;;;;;;8.65;100.00;100088.53;2614559;36;20034;-58
2023/01/13 03:08:26;;;;;;;26.10;4.45;;;;;;;8.60;100.00;100086.28;2614501;36;20035;-58
2023/01/13 03:11:03;;;;;;;23.88;3.92;;;;;;;8.68;100.00;100089.09;2614884;36;20447;-58
2023/01/13 03:14:07;;;;;;;22.58;4.45;;;;;;;8.69;100.00;100090.78;2613965;36;20166;-58
2023/01/13 03:16:50;;;;;;;22.77;3.60;;;;;;;8.77;100.00;100090.06;2614074;36;20042;-59
2023/01/13 03:19:31;;;;;;;16.08;4.00;;;;;;;8.75;100.00;100089.38;2614422;36;20038;-57
2023/01/13 03:22:07;;;;;;;27.98;4.65;;;;;;;8.72;100.00;100076.25;2614882;36;20034;-59
2023/01/13 03:24:38;;;;;;;21.52;4.43;;;;;;;8.79;100.00;100092.59;2615061;36;20436;-59
2023/01/13 03:27:12;;;;;;;29.05;4.80;;;;;;;8.73;100.00;100077.91;2615060;36;20035;-58
2023/01/13 03:29:47;;;;;;;26.55;4.38;;;;;;;8.69;100.00;100085.41;2613641;36;20045;-58
2023/01/13 03:32:21;;;;;;;29.02;3.90;;;;;;;8.68;100.00;100081.03;2614388;31;20022;-58
2023/01/13 03:34:56;;;;;;;25.75;3.72;;;;;;;8.61;100.00;100079.06;2614105;36;20035;-58
2023/01/13 03:37:30;;;;;;;27.10;4.90;;;;;;;8.57;100.00;100091.94;2614646;36;20033;-59
2023/01/13 03:40:03;;;;;;;16.15;3.75;;;;;;;8.61;100.00;100089.81;2614406;36;20069;-57
2023/01/13 03:42:35;;;;;;;23.25;3.58;;;;;;;8.55;100.00;100100.13;2614282;31;20699;-57
2023/01/13 03:45:08;;;;;;;26.00;5.85;;;;;;;8.58;100.00;100088.25;2614539;36;20038;-59
2023/01/13 03:47:42;;;;;;;16.88;3.28;;;;;;;8.56;100.00;100084.88;2614118;36;20035;-56
2023/01/13 03:50:17;;;;;;;19.25;4.43;;;;;;;8.56;100.00;100080.34;2615691;31;20942;-58
2023/01/13 03:52:47;;;;;;;30.08;3.97;;;;;;;8.47;100.00;100064.28;2615371;36;20034;-59
2023/01/13 03:55:19;;;;;;;15.50;3.47;;;;;;;8.50;100.00;100064.81;2615108;36;20030;-59
2023/01/13 03:57:52;;;;;;;27.40;4.63;;;;;;;8.54;100.00;100071.59;2615540;31;20130;-58
2023/01/13 04:00:23;;;;;;;19.58;3.35;;;;;;;8.50;100.00;100074.72;2615535;36;20404;-59
2023/01/13 04:02:55;;;;;;;22.52;3.92;;;;;;;8.41;100.00;100071.84;2614519;36;20543;-59
2023/01/13 04:05:28;;;;;;;24.77;3.40;;;;;;;8.52;100.00;100078.09;2615277;36;20545;-59
2023/01/13 04:08:04;;;;;;;17.05;3.65;;;;;;;8.50;100.00;100082.75;2615427;36;20026;-58
2023/01/13 04:10:37;;;;;;;21.08;4.40;;;;;;;8.50;100.00;100088.13;2614828;36;20037;-58
2023/01/13 04:13:10;;;;;;;22.80;4.25;;;;;;;8.50;100.00;100078.22;2615051;36;20057;-58
2023/01/13 04:15:44;;;;;;;25.83;3.40;;;;;;;8.49;100.00;100075.69;2615552;36;20030;-58
2023/01/13 04:18:16;;;;;;;21.52;4.80;;;;;;;8.51;100.00;100079.94;2614519;36;20057;-58
2023/01/13 04:20:49;;;;;;;19.58;3.47;;;;;;;8.45;100.00;100080.50;2615759;31;20570;-59
2023/01/13 04:23:18;;;;;;;28.08;4.00;;;;;;;8.46;100.00;100094.75;2615614;31;20031;-57
2023/01/13 04:25:47;;;;;;;13.50;2.50;;;;;;;8.45;100.00;100085.88;2615060;36;20038;-57
2023/01/13 04:28:17;;;;;;;18.17;3.30;;;;;;;8.41;100.00;100084.44;2615169;36;20023;-57
2023/01/13 04:30:46;;;;;;;16.50;2.92;;;;;;;8.40;100.00;100096.13;2615717;31;20543;-58
2023/01/13 04:33:16;;;;;;;18.77;3.35;;;;;;;8.46;100.00;100094.75;2615027;31;20038;-58
2023/01/13 04:35:48;;;;;;;14.02;2.67;;;;;;;8.44;100.00;100084.16;2615140;36;20046;-57
2023/01/13 04:38:18;;;;;;;16.38;3.35;;;;;;;8.50;100.00;100091.66;2615779;31;20043;-58
2023/01/13 04:40:46;;;;;;;19.58;3.03;;;;;;;8.52;100.00;100095.03;2614925;36;20034;-58
2023/01/13 04:43:15;;;;;;;14.98;2.80;;;;;;;8.44;100.00;100094.03;2615612;36;20427;-59
2023/01/13 04:45:43;;;;;;;21.33;3.40;;;;;;;8.38;100.00;100077.50;2614782;36;20037;-57
2023/01/13 04:48:13;;;;;;;14.65;3.20;;;;;;;8.41;100.00;100061.13;2614029;36;20296;-59
2023/01/13 04:50:41;;;;;;;19.38;4.75;;;;;;;8.48;100.00;100060.59;2614941;36;20038;-59
2023/01/13 04:53:13;;;;;;;30.10;9.07;;;;;;;8.40;100.00;100048.69;2615211;31;20038;-59
2023/01/13 04:55:43;;;;;;;26.70;9.45;;;;;;;8.43;100.00;100079.75;2615079;36;20553;-58
2023/01/13 04:58:12;;;;;;;32.78;10.93;;;;;;;8.44;100.00;100069.91;2615029;31;20038;-57
2023/01/13 05:00:41;;;;;;;29.83;11.75;;;;;;;8.41;100.00;100061.13;2614819;36;20026;-56
2023/01/13 05:03:09;;;;;;;31.07;12.57;;;;;;;8.51;100.00;100079.06;2614428;36;20046;-58
2023/01/13 05:05:37;;;;;;;33.95;11.50;;;;;;;8.50;100.00;100078.22;2614823;36;20491;-57
2023/01/13 05:08:07;;;;;;;31.05;12.80;;;;;;;8.36;100.00;100071.44;2615013;36;20034;-58
2023/01/13 05:10:38;;;;;;;29.38;10.30;;;;;;;8.34;100.00;100070.72;2614501;36;20161;-58
2023/01/13 05:18:29;;;;;;;19.55;6.45;;;;;;;8.33;100.00;100074.41;2614437;36;20034;-58
2023/01/13 05:20:58;;;;;;;17.73;4.68;;;;;;;8.22;100.00;100066.50;2615306;36;20041;-58
2023/01/13 05:26:10;;;;;;;12.73;4.00;;;;;;;8.16;100.00;100062.53;2615248;31;20038;-58
2023/01/13 05:28:38;;;;;;;8.30;2.63;;;;;;;8.22;100.00;100061.13;2614585;36;20030;-59
2023/01/13 05:31:10;;;;;;;9.55;2.55;;;;;;;8.12;100.00;100055.75;2615577;36;20038;-58
2023/01/13 05:33:42;;;;;;;10.13;2.30;;;;;;;8.17;100.00;100055.34;2615010;39;20522;-56
2023/01/13 05:36:11;;;;;;;8.13;2.60;;;;;;;8.19;100.00;100043.50;2614907;36;20065;-58
2023/01/13 05:38:41;;;;;;;9.52;2.20;;;;;;;8.20;100.00;100055.06;2615511;31;20038;-57
2023/01/13 05:43:52;;;;;;;9.45;2.05;;;;;;;8.21;100.00;100067.47;2615450;36;20747;-58
2023/01/13 05:46:21;;;;;;;12.07;2.47;;;;;;;8.03;100.00;100053.94;2614367;36;20030;-58
2023/01/13 05:48:49;;;;;;;11.85;1.98;;;;;;;8.07;100.00;100058.03;2614257;36;20023;-59
2023/01/13 05:51:18;;;;;;;11.32;2.53;;;;;;;8.17;100.00;100061.56;2614504;36;20045;-58
2023/01/13 05:53:46;;;;;;;8.98;2.00;;;;;;;8.01;100.00;100075.50;2614662;36;20042;-59
2023/01/13 05:56:18;;;;;;;13.32;2.63;;;;;;;8.02;100.00;100074.53;2615294;36;20428;-59
2023/01/13 05:58:46;;;;;;;8.35;2.50;;;;;;;8.13;100.00;100070.03;2614697;36;20038;-58
2023/01/13 06:01:14;;;;;;;14.93;2.83;;;;;;;8.13;100.00;100084.25;2614441;36;20615;-58
2023/01/13 06:03:43;;;;;;;9.55;1.83;;;;;;;8.18;100.00;100076.63;2614821;36;20810;-59
2023/01/13 06:06:11;;;;;;;13.00;2.22;;;;;;;8.17;100.00;100076.78;2614890;36;20046;-59
2023/01/13 06:08:39;;;;;;;15.18;2.20;;;;;;;8.24;100.00;100077.91;2614717;36;20039;-58
2023/01/13 06:11:08;;;;;;;10.80;2.35;;;;;;;8.27;100.00;100085.69;2614428;36;20031;-57
2023/01/13 06:13:39;;;;;;;15.17;2.57;;;;;;;8.23;100.00;100082.44;2614616;36;20034;-58
2023/01/13 06:16:07;;;;;;;15.95;2.70;;;;;;;8.29;100.00;100077.50;2614734;36;20029;-58
2023/01/13 06:18:36;;;;;;;13.60;2.50;;;;;;;8.34;100.00;100083.28;2614008;31;20034;-58
2023/01/13 06:21:04;;;;;;;16.70;2.38;;;;;;;8.38;100.00;100077.50;2615172;36;20111;-59
2023/01/13 06:23:34;;;;;;;12.40;2.05;;;;;;;8.28;100.00;100071.28;2615084;36;20042;-58
2023/01/13 06:26:09;;;;;;;14.10;2.55;;;;;;;8.48;100.00;100087.41;2614773;36;20121;-57
2023/01/13 06:28:40;;;;;;;12.57;1.90;;;;;;;8.39;100.00;100084.56;2614981;36;20061;-58
2023/01/13 06:31:11;;;;;;;15.68;2.22;;;;;;;8.36;100.00;100089.34;2613872;36;20945;-58
2023/01/13 06:33:41;;;;;;;12.95;2.28;;;;;;;8.33;100.00;100092.31;2613214;36;20035;-58
2023/01/13 06:36:15;;;;;;;13.32;2.58;;;;;;;8.40;100.00;100090.75;2613649;36;20041;-58
2023/01/13 06:38:47;;;;;;;15.02;2.10;;;;;;;8.44;100.00;100091.34;2613212;31;20043;-59
2023/01/13 06:41:16;;;;;;;15.38;2.33;;;;;;;8.46;100.00;100094.75;2613465;36;20037;-58
2023/01/13 06:43:45;;;;;;;10.88;2.35;;;;;;;8.36;100.00;100082.16;2613788;36;20022;-58
2023/01/13 06:46:13;;;;;;;12.32;2.17;;;;;;;8.35;100.00;100090.34;2614591;36;20134;-58
2023/01/13 06:48:42;;;;;;;12.00;2.67;;;;;;;8.44;100.00;100086.84;2614128;36;20042;-59
2023/01/13 06:51:10;;;;;;;18.98;2.50;;;;;;;8.41;100.00;100090.63;2615124;36;20310;-58
2023/01/13 06:53:38;;;;;;;17.63;2.65;;;;;;;8.41;100.00;100111.25;2613857;36;20572;-59
2023/01/13 06:56:07;;;;;;;18.92;2.10;;;;;;;8.41;100.00;100098.66;2613903;36;20427;-58
2023/01/13 06:58:35;;;;;;;12.95;2.60;;;;;;;8.45;100.00;100095.72;2614164;36;20038;-59
2023/01/13 07:01:08;;;;;;;11.45;2.92;;;;;;;8.46;100.00;100095.59;2614480;36;20404;-59
2023/01/13 07:03:36;;;;;;;18.77;3.08;;;;;;;8.48;100.00;100092.75;2614718;36;20030;-58
2023/01/13 07:06:05;;;;;;;9.70;1.63;;;;;;;8.50;100.00;100102.38;2614723;36;20050;-59
2023/01/13 07:08:33;;;;;;;17.20;2.35;;;;;;;8.55;100.00;100100.13;2615604;36;20038;-58
2023/01/13 07:11:03;;;;;;;13.65;2.50;;;;;;;8.59;100.00;100084.59;2614933;36;20042;-58
2023/01/13 07:16:15;;;;;;;12.75;2.53;;;;;;;8.69;100.00;100081.91;2615626;36;20071;-59
2023/01/13 07:18:43;;;;;;;17.73;2.42;;;;;;;8.71;100.00;100094.16;2615154;36;20034;-58
2023/01/13 07:21:17;;;;;;;11.25;2.63;;;;;;;8.78;100.00;100091.75;2615818;31;20038;-58
2023/01/13 07:23:46;;;;;;;18.27;2.70;;;;;;;8.80;100.00;100091.63;2616606;31;20041;-58
2023/01/13 07:26:15;;;;;;;14.50;2.33;;;;;;;8.68;100.00;100086.41;2616304;36;20030;-57
2023/01/13 07:28:43;;;;;;;17.42;1.90;;;;;;;8.86;100.00;100091.91;2616769;31;20260;-60
2023/01/13 07:31:20;;;;;;;11.67;3.00;;;;;;;8.86;100.00;100109.81;2616688;36;20022;-57
2023/01/13 07:33:48;;;;;;;15.07;2.58;;;;;;;8.82;100.00;100098.53;2615811;36;20034;-59
2023/01/13 07:36:17;;;;;;;11.02;2.30;;;;;;;8.90;100.00;100108.56;2616247;36;20049;-59
2023/01/13 07:38:45;;;;;;;14.48;2.50;;;;;;;8.91;100.00;100116.47;2616398;36;20030;-59
2023/01/13 07:43:56;;;;;;;13.85;1.90;;;;;;;8.78;100.00;100105.19;2617036;36;20528;-59
2023/01/13 07:46:27;;;;;;;11.68;2.38;;;;;;;8.70;100.00;100121.13;2616187;31;20081;-58
2023/01/13 07:48:55;;;;;;;18.70;3.00;;;;;;;8.61;100.00;100122.81;2615966;36;20037;-59
2023/01/13 07:51:24;;;;;;;17.38;2.53;;;;;;;8.57;100.00;100127.66;2616791;36;20034;-57
2023/01/13 07:53:53;;;;;;;13.98;2.83;;;;;;;8.41;100.00;100138.91;2616731;36;20061;-57
2023/01/13 07:56:21;;;;;;;16.02;2.53;;;;;;;8.55;100.00;100136.81;2615888;36;20527;-56
2023/01/13 07:58:52;;;;;;;13.38;3.05;;;;;;;8.38;100.00;100131.13;2615912;36;20049;-58
2023/01/13 08:01:20;;;;;;;14.73;2.42;;;;;;;8.47;100.00;100124.13;2616802;36;20583;-57
2023/01/13 08:03:51;;;;;;;20.35;3.40;;;;;;;8.31;100.00;100139.88;2614615;36;20035;-57
2023/01/13 08:06:20;;;;;;;18.25;3.63;;;;;;;8.36;100.00;100138.47;2613285;31;20045;-58
2023/01/13 08:08:48;;;;;;;21.33;2.95;;;;;;;8.30;100.00;100144.38;2615014;36;20085;-58
2023/01/13 08:11:17;;;;;;;16.95;3.03;;;;;;;8.18;100.00;100148.19;2614471;36;20022;-57
2023/01/13 08:13:46;;;;;;;13.47;2.70;;;;;;;8.18;100.00;100153.53;2614878;36;20411;-57
2023/01/13 08:16:16;;;;;;;19.13;2.90;;;;;;;8.03;100.00;100153.91;2614699;36;20034;-56
2023/01/13 08:18:46;;;;;;;20.17;3.10;;;;;;;8.23;100.00;100159.34;2614739;36;20088;-58
2023/01/13 08:21:18;;;;;;;15.38;2.75;;;;;;;8.14;100.00;100152.97;2614053;36;20030;-58
2023/01/13 08:26:28;;;;;;;21.88;2.83;;;;;;;8.04;100.00;100154.78;2630309;36;20037;-59
2023/01/13 08:28:56;;;;;;;17.92;2.90;;;;;;;8.14;100.00;100160.16;2611332;36;20041;-58
2023/01/13 08:31:25;;;;;;;15.85;2.92;;;;;;;8.10;100.00;100151.56;2614302;36;20035;-58
2023/01/13 08:33:53;;;;;;;15.85;2.92;;;;;;;8.11;100.00;100155.91;2614150;36;20034;-57
2023/01/13 08:36:24;;;;;;;19.63;2.95;;;;;;;8.04;100.00;100149.44;2613982;36;20562;-57
2023/01/13 08:38:52;;;;;;;20.05;3.30;;;;;;;8.02;100.00;100178.19;2633513;36;20022;-59
2023/01/13 08:41:53;;;;;;;18.15;2.92;;;;;;;7.94;100.00;100165.47;2614044;31;20022;-55
2023/01/13 08:44:09;;;;;;;15.27;2.90;;;;;;;7.95;100.00;100160.94;2612732;36;20145;-58
2023/01/13 08:46:38;;;;;;;18.17;3.05;;;;;;;7.98;100.00;100179.44;2615287;36;20115;-58
2023/01/13 08:49:06;;;;;;;15.43;3.22;;;;;;;8.04;100.00;100178.91;2614117;36;20042;-56
2023/01/13 08:51:37;;;;;;;14.82;2.83;;;;;;;8.12;100.00;100173.69;2615701;36;20035;-58
2023/01/13 08:54:06;;;;;;;19.90;2.75;;;;;;;7.97;100.00;100186.63;2614623;36;21765;-60
2023/01/13 08:56:34;;;;;;;20.85;3.58;;;;;;;8.01;100.00;100182.69;2615384;36;20057;-58
2023/01/13 08:59:03;;;;;;;11.55;2.85;;;;;;;8.01;100.00;100190.75;2615142;36;20034;-59
2023/01/13 09:01:31;;;;;;;13.35;3.60;;;;;;;8.02;100.00;100200.47;2614725;36;20022;-58
2023/01/13 09:04:00;;;;;;;13.47;2.37;;;;;;;8.04;100.00;100193.16;2615287;36;20420;-57
2023/01/13 09:06:28;;;;;;;14.15;2.42;;;;;;;8.01;100.00;100190.75;2615040;36;20030;-58
2023/01/13 09:09:01;;;;;;;17.00;2.17;;;;;;;8.01;100.00;100182.69;2615268;36;20042;-58
2023/01/13 09:14:13;;;;;;;19.90;3.63;;;;;;;8.20;100.00;100206.03;2614428;36;20027;-59
2023/01/13 09:16:42;;;;;;;17.67;2.90;;;;;;;8.13;100.00;100209.41;2614821;31;20077;-58
2023/01/13 09:19:11;;;;;;;15.95;4.55;;;;;;;8.14;100.00;100203.03;2615211;36;20035;-58
2023/01/13 09:21:39;;;;;;;14.15;3.00;;;;;;;8.17;100.00;100209.00;2615718;36;20065;-58
2023/01/13 09:24:10;;;;;;;19.00;2.58;;;;;;;8.20;100.00;100207.84;2617284;36;20565;-58
2023/01/13 09:26:39;;;;;;;15.20;2.70;;;;;;;8.30;100.00;100211.41;2614024;36;20046;-58
2023/01/13 09:29:08;;;;;;;15.30;2.88;;;;;;;8.27;100.00;100214.34;2616227;36;20417;-59
2023/01/13 09:31:36;;;;;;;15.40;3.10;;;;;;;8.27;100.00;100200.13;2615356;36;20097;-58
2023/01/13 09:36:46;;;;;;;15.20;2.70;;;;;;;8.22;100.00;100205.91;2612290;36;20097;-57
2023/01/13 09:39:18;;;;;;;17.55;2.55;;;;;;;8.24;100.00;100220.00;2614297;36;20078;-59
2023/01/13 09:44:38;;;;;;;20.00;3.92;;;;;;;8.23;100.00;100229.03;2613738;36;20031;-58
2023/01/13 09:47:15;;;;;;;27.65;3.55;;;;;;;8.20;100.00;100235.53;2614095;36;20535;-58
2023/01/13 09:49:44;;;;;;;20.08;4.40;;;;;;;8.27;100.00;100237.66;2615042;36;20038;-60
2023/01/13 09:52:18;;;;;;;15.35;2.75;;;;;;;8.27;100.00;100235.81;2614874;31;20039;-59
2023/01/13 09:54:53;;;;;;;15.50;3.22;;;;;;;8.26;100.00;100250.22;2615116;36;20044;-58
2023/01/13 09:57:22;;;;;;;19.05;2.92;;;;;;;8.37;100.00;100246.56;2615188;36;20034;-60
2023/01/13 09:59:50;;;;;;;15.33;2.67;;;;;;;8.58;100.00;100246.50;2615513;36;20022;-57
2023/01/13 10:02:40;;;;;;;20.73;3.60;;;;;;;8.57;100.00;100258.25;2613973;36;20330;-59
2023/01/13 10:05:18;;;;;;;28.58;3.63;;;;;;;8.62;100.00;100258.66;2617535;36;20447;-58
2023/01/13 10:07:53;;;;;;;20.48;3.28;;;;;;;8.62;100.00;100253.28;2614760;36;20034;-58
2023/01/13 10:10:35;;;;;;;19.63;2.90;;;;;;;8.61;100.00;100258.78;2613876;31;20034;-55
2023/01/13 10:13:13;;;;;;;16.45;2.88;;;;;;;8.54;100.00;100254.00;2613097;36;20034;-58
2023/01/13 10:15:47;;;;;;;21.05;2.80;;;;;;;8.56;100.00;100265.41;2614557;36;20031;-58
2023/01/13 10:18:22;;;;;;;16.00;2.60;;;;;;;8.63;100.00;100279.16;2613414;36;20029;-58
2023/01/13 10:21:01;;;;;;;16.98;2.58;;;;;;;8.63;100.00;100291.69;2613268;36;20034;-59
2023/01/13 10:23:54;;;;;;;16.88;3.25;;;;;;;8.52;100.00;100284.59;2613995;36;20034;-58
2023/01/13 10:26:40;;;;;;;16.67;3.22;;;;;;;8.49;100.00;100293.78;2613434;36;20039;-59
2023/01/13 10:29:20;;;;;;;18.88;3.22;;;;;;;8.41;100.00;100285.53;2613655;36;20042;-58
2023/01/13 10:31:49;;;;;;;18.27;3.20;;;;;;;8.46;100.00;100291.38;2614103;36;20041;-58
2023/01/13 10:34:18;;;;;;;17.60;3.33;;;;;;;8.49;100.00;100287.56;2613076;36;20042;-60
2023/01/13 10:37:01;;;;;;;18.58;2.97;;;;;;;8.52;100.00;100298.03;2615916;31;20424;-58
2023/01/13 10:39:39;;;;;;;14.68;3.58;;;;;;;8.51;100.00;100293.63;2614864;36;20555;-57
2023/01/13 10:42:15;;;;;;;14.23;2.83;;;;;;;8.53;100.00;100305.09;2613903;36;20424;-56
2023/01/13 10:44:51;;;;;;;19.58;4.18;;;;;;;8.51;100.00;100301.69;2613152;36;20023;-56
2023/01/13 10:47:30;;;;;;;21.60;4.50;;;;;;;8.53;100.00;100305.09;2614088;36;20031;-58
2023/01/13 10:50:04;;;;;;;27.90;4.45;;;;;;;8.51;100.00;100301.69;2615072;36;20535;-58
2023/01/13 10:52:35;;;;;;;16.33;5.47;;;;;;;8.47;100.00;100303.81;2615504;36;20030;-58
2023/01/13 10:55:05;;;;;;;26.98;4.65;;;;;;;8.53;100.00;100310.47;2614638;31;20034;-56
2023/01/13 10:57:37;;;;;;;;;;;;;;;8.54;100.00;100293.38;2615277;36;20146;-59
2023/01/13 11:00:07;;;;;;;14.20;2.60;;;;;;;8.70;100.00;100306.25;2616105;36;19949;-57
2023/01/13 11:02:37;;;;;;;15.18;4.03;;;;;;;8.74;100.00;100311.19;2615599;36;20057;-59
2023/01/13 11:05:20;;;;;;;19.50;4.10;;;;;;;8.76;100.00;100306.56;2615928;36;20041;-58
2023/01/13 11:07:53;;;;;;;14.95;2.95;;;;;;;8.78;100.00;100309.09;2616186;36;20022;-57
2023/01/13 11:10:26;;;;;;;15.23;2.60;;;;;;;8.81;100.00;100316.03;2614914;31;20543;-57
2023/01/13 11:13:13;;;;;;;14.38;2.00;;;;;;;8.85;100.00;100309.38;2615154;36;20042;-57
2023/01/13 11:18:37;;;;;;;15.85;2.70;;;;;;;8.90;100.00;100323.25;2617097;36;20125;-57
2023/01/13 11:21:10;;;;;;;12.45;2.90;;;;;;;9.02;100.00;100314.06;2620406;36;20129;-57
2023/01/13 11:23:44;;;;;;;14.18;2.83;;;;;;;9.03;100.00;100323.00;2619142;36;20026;-57
2023/01/13 11:26:17;;;;;;;16.08;3.05;;;;;;;9.10;100.00;100324.97;2637176;36;20035;-59
2023/01/13 11:28:53;;;;;;;15.32;2.15;;;;;;;9.17;100.00;100314.53;2619028;36;20038;-58
2023/01/13 11:31:27;;;;;;;11.30;2.15;;;;;;;9.10;100.00;100329.50;2619567;36;20046;-58
2023/01/13 11:34:03;;;;;;;12.98;2.10;;;;;;;9.23;100.00;100335.44;2619409;36;20034;-58
2023/01/13 11:36:40;;;;;;;9.85;2.22;;;;;;;9.21;100.00;100342.78;2619373;36;20045;-60
2023/01/13 11:39:20;;;;;;;10.25;2.10;;;;;;;9.25;100.00;100346.06;2618150;36;20566;-59
2023/01/13 11:42:19;;;;;;;12.25;2.65;;;;;;;9.23;100.00;100340.81;2619403;36;20073;-57
2023/01/13 11:44:47;;;;;;;11.45;2.42;;;;;;;9.25;100.00;100357.63;2619593;36;20050;-57
2023/01/13 11:47:19;;;;;;;8.93;2.40;;;;;;;9.32;100.00;100354.38;2618377;36;20045;-56
2023/01/13 11:49:50;;;;;;;11.55;2.22;;;;;;;9.29;100.00;100355.53;2618733;36;20038;-57
2023/01/13 11:52:24;;;;;;;13.52;2.33;;;;;;;9.21;100.00;100368.78;2619082;36;20570;-58
2023/01/13 11:55:03;;;;;;;11.65;2.25;;;;;;;9.34;100.00;100374.75;2619076;36;20543;-57
2023/01/13 11:57:48;;;;;;;15.77;2.50;;;;;;;9.34;100.00;100390.84;2619107;36;20030;-59
2023/01/13 12:03:21;;;;;;;11.60;1.98;;;;;;;9.40;100.00;100374.19;2637598;36;20180;-58
2023/01/13 12:06:03;;;;;;;13.02;2.20;;;;;;;9.37;100.00;100371.78;2620081;36;20029;-59
2023/01/13 12:08:55;;;;;;;20.30;2.85;;;;;;;9.40;100.00;100390.28;2636535;36;20459;-58
2023/01/13 12:11:32;;;;;;;10.63;2.30;;;;;;;9.36;100.00;100393.41;2619641;36;20034;-57
2023/01/13 12:14:17;;;;;;;15.90;2.20;;;;;;;9.33;100.00;100399.91;2620116;31;20034;-57
2023/01/13 12:18:35;;;;;;;10.88;1.92;;;;;;;9.25;100.00;100389.00;2618349;31;20182;-58
2023/01/13 12:21:18;;;;;;;7.30;1.75;;;;;;;9.36;100.00;100393.41;2619459;36;20049;-59
2023/01/13 12:23:56;;;;;;;11.00;2.13;;;;;;;9.43;100.00;100406.13;2618532;36;20060;-56
2023/01/13 12:26:25;;;;;;;13.25;2.38;;;;;;;9.29;100.00;100398.50;2619203;31;20039;-58
2023/01/13 12:28:58;;;;;;;12.82;2.10;;;;;;;9.32;100.00;100371.38;2618927;36;20038;-58